Sukkertoppen, Greenland
Current Conditions -  °F | °C
As of 9:50 AM on Thursday 27 Nov 2014 (Local Time) from BGGH Reporting Station
Broken Clouds Broken Clouds  
Wind Chill:   Ceiling: 4000
Heat Index: 21°   Visibility: 6mi
Dew Point: 14°   Wind: 15mph
Humidity: 74%   Direction: 110°ESE
Pressure: 29.59"   Gusts: NA
Location:  65.43°N, 52.93°W
Report Text: BGGH 271150Z 11013KT 9999 BKN040 DRSN M06/M10 Q1002
Loading
Personal Weather Stations






























Interactive Weather Map New forecast layout! Learn more

10-Day Weather Forecast

Advertisements
Track Severe Weather on mobile